sensor_id;sensor_type;location;lat;lon;timestamp;P1;durP1;ratioP1;P2;durP2;ratioP2
78838;SDS011;68405;47.190;27.558;2023-03-19T00:00:09;56.90;;;26.80;;
78838;SDS011;68405;47.190;27.558;2023-03-19T00:05:32;41.00;;;20.40;;
78838;SDS011;68405;47.190;27.558;2023-03-19T00:08:05;32.00;;;16.40;;
78838;SDS011;68405;47.190;27.558;2023-03-19T00:10:38;27.00;;;15.00;;
78838;SDS011;68405;47.190;27.558;2023-03-19T00:13:10;30.20;;;15.40;;
78838;SDS011;68405;47.190;27.558;2023-03-19T00:15:41;33.70;;;15.50;;
78838;SDS011;68405;47.190;27.558;2023-03-19T00:18:13;31.50;;;15.00;;
78838;SDS011;68405;47.190;27.558;2023-03-19T00:20:45;30.70;;;15.00;;
78838;SDS011;68405;47.190;27.558;2023-03-19T00:23:17;26.30;;;12.60;;
78838;SDS011;68405;47.190;27.558;2023-03-19T00:25:48;57.80;;;24.80;;
78838;SDS011;68405;47.190;27.558;2023-03-19T00:28:22;56.30;;;26.30;;
78838;SDS011;68405;47.190;27.558;2023-03-19T00:30:53;50.90;;;23.80;;
78838;SDS011;68405;47.190;27.558;2023-03-19T00:33:25;37.40;;;17.30;;
78838;SDS011;68405;47.190;27.558;2023-03-19T00:35:57;32.90;;;15.00;;
78838;SDS011;68405;47.190;27.558;2023-03-19T00:38:30;34.50;;;17.00;;
78838;SDS011;68405;47.190;27.558;2023-03-19T00:41:03;34.90;;;16.20;;
78838;SDS011;68405;47.190;27.558;2023-03-19T00:43:36;30.70;;;14.70;;
78838;SDS011;68405;47.190;27.558;2023-03-19T00:46:08;54.30;;;24.30;;
78838;SDS011;68405;47.190;27.558;2023-03-19T00:48:40;59.50;;;25.70;;
78838;SDS011;68405;47.190;27.558;2023-03-19T00:51:11;52.50;;;24.30;;
78838;SDS011;68405;47.190;27.558;2023-03-19T00:53:43;29.10;;;15.00;;
78838;SDS011;68405;47.190;27.558;2023-03-19T00:56:15;29.70;;;15.30;;
78838;SDS011;68405;47.190;27.558;2023-03-19T00:58:47;31.00;;;15.30;;
78838;SDS011;68405;47.190;27.558;2023-03-19T01:01:18;29.10;;;15.10;;
78838;SDS011;68405;47.190;27.558;2023-03-19T01:03:50;32.30;;;15.70;;
78838;SDS011;68405;47.190;27.558;2023-03-19T01:06:22;52.70;;;23.30;;
78838;SDS011;68405;47.190;27.558;2023-03-19T01:08:54;58.70;;;25.30;;
78838;SDS011;68405;47.190;27.558;2023-03-19T01:11:25;39.00;;;19.20;;
78838;SDS011;68405;47.190;27.558;2023-03-19T01:13:57;32.00;;;16.80;;
78838;SDS011;68405;47.190;27.558;2023-03-19T01:16:29;30.70;;;14.60;;
78838;SDS011;68405;47.190;27.558;2023-03-19T01:19:02;35.30;;;16.40;;
78838;SDS011;68405;47.190;27.558;2023-03-19T01:21:34;38.30;;;17.00;;
78838;SDS011;68405;47.190;27.558;2023-03-19T01:24:05;36.60;;;17.10;;
78838;SDS011;68405;47.190;27.558;2023-03-19T01:26:38;48.90;;;23.30;;
78838;SDS011;68405;47.190;27.558;2023-03-19T01:29:09;59.70;;;26.70;;
78838;SDS011;68405;47.190;27.558;2023-03-19T01:31:41;50.40;;;23.60;;
78838;SDS011;68405;47.190;27.558;2023-03-19T01:34:13;32.20;;;15.40;;
78838;SDS011;68405;47.190;27.558;2023-03-19T01:36:44;49.10;;;15.10;;
78838;SDS011;68405;47.190;27.558;2023-03-19T01:39:16;34.70;;;17.30;;
78838;SDS011;68405;47.190;27.558;2023-03-19T01:41:48;34.70;;;14.50;;
78838;SDS011;68405;47.190;27.558;2023-03-19T01:44:26;35.80;;;15.20;;
78838;SDS011;68405;47.190;27.558;2023-03-19T01:47:02;63.00;;;23.90;;
78838;SDS011;68405;47.190;27.558;2023-03-19T01:49:36;55.20;;;24.80;;
78838;SDS011;68405;47.190;27.558;2023-03-19T01:52:09;55.90;;;24.40;;
78838;SDS011;68405;47.190;27.558;2023-03-19T01:54:42;31.40;;;16.00;;
78838;SDS011;68405;47.190;27.558;2023-03-19T01:57:15;29.10;;;15.40;;
78838;SDS011;68405;47.190;27.558;2023-03-19T01:59:47;27.30;;;13.70;;
78838;SDS011;68405;47.190;27.558;2023-03-19T02:02:23;32.30;;;13.80;;
78838;SDS011;68405;47.190;27.558;2023-03-19T02:04:59;31.40;;;13.70;;
78838;SDS011;68405;47.190;27.558;2023-03-19T02:07:36;62.50;;;24.20;;
78838;SDS011;68405;47.190;27.558;2023-03-19T02:10:12;59.70;;;25.80;;
78838;SDS011;68405;47.190;27.558;2023-03-19T02:12:45;50.00;;;22.70;;
78838;SDS011;68405;47.190;27.558;2023-03-19T02:15:17;36.10;;;16.00;;
78838;SDS011;68405;47.190;27.558;2023-03-19T02:17:49;29.10;;;14.00;;
78838;SDS011;68405;47.190;27.558;2023-03-19T02:20:23;25.80;;;14.00;;
78838;SDS011;68405;47.190;27.558;2023-03-19T02:23:02;29.00;;;14.80;;
78838;SDS011;68405;47.190;27.558;2023-03-19T02:28:24;58.70;;;23.80;;
78838;SDS011;68405;47.190;27.558;2023-03-19T02:30:57;46.80;;;22.20;;
78838;SDS011;68405;47.190;27.558;2023-03-19T02:33:29;37.70;;;18.20;;
78838;SDS011;68405;47.190;27.558;2023-03-19T02:36:01;26.00;;;12.40;;
78838;SDS011;68405;47.190;27.558;2023-03-19T02:38:35;23.30;;;12.80;;
78838;SDS011;68405;47.190;27.558;2023-03-19T02:41:11;27.40;;;13.30;;
78838;SDS011;68405;47.190;27.558;2023-03-19T02:43:43;31.20;;;16.00;;
78838;SDS011;68405;47.190;27.558;2023-03-19T02:46:15;25.70;;;12.50;;
78838;SDS011;68405;47.190;27.558;2023-03-19T02:48:46;44.70;;;18.30;;
78838;SDS011;68405;47.190;27.558;2023-03-19T02:51:20;38.00;;;18.30;;
78838;SDS011;68405;47.190;27.558;2023-03-19T02:53:51;30.40;;;14.30;;
78838;SDS011;68405;47.190;27.558;2023-03-19T02:56:23;26.70;;;12.80;;
78838;SDS011;68405;47.190;27.558;2023-03-19T02:58:55;28.00;;;13.40;;
78838;SDS011;68405;47.190;27.558;2023-03-19T03:01:26;31.10;;;13.80;;
78838;SDS011;68405;47.190;27.558;2023-03-19T03:03:58;26.60;;;13.40;;
78838;SDS011;68405;47.190;27.558;2023-03-19T03:06:32;26.50;;;13.30;;
78838;SDS011;68405;47.190;27.558;2023-03-19T03:09:03;30.50;;;13.90;;
78838;SDS011;68405;47.190;27.558;2023-03-19T03:11:35;45.70;;;18.90;;
78838;SDS011;68405;47.190;27.558;2023-03-19T03:14:08;45.70;;;18.00;;
78838;SDS011;68405;47.190;27.558;2023-03-19T03:16:40;30.20;;;15.40;;
78838;SDS011;68405;47.190;27.558;2023-03-19T03:19:12;30.00;;;14.20;;
78838;SDS011;68405;47.190;27.558;2023-03-19T03:21:44;31.60;;;14.50;;
78838;SDS011;68405;47.190;27.558;2023-03-19T03:24:15;24.40;;;13.00;;
78838;SDS011;68405;47.190;27.558;2023-03-19T03:26:47;28.40;;;13.70;;
78838;SDS011;68405;47.190;27.558;2023-03-19T03:29:19;24.60;;;13.60;;
78838;SDS011;68405;47.190;27.558;2023-03-19T03:31:51;27.40;;;13.70;;
78838;SDS011;68405;47.190;27.558;2023-03-19T03:34:22;35.30;;;17.10;;
78838;SDS011;68405;47.190;27.558;2023-03-19T03:36:54;36.10;;;16.50;;
78838;SDS011;68405;47.190;27.558;2023-03-19T03:39:26;23.00;;;13.00;;
78838;SDS011;68405;47.190;27.558;2023-03-19T03:41:58;25.80;;;13.30;;
78838;SDS011;68405;47.190;27.558;2023-03-19T03:44:29;25.80;;;14.10;;
78838;SDS011;68405;47.190;27.558;2023-03-19T03:47:01;27.10;;;14.10;;
78838;SDS011;68405;47.190;27.558;2023-03-19T03:49:33;26.60;;;12.90;;
78838;SDS011;68405;47.190;27.558;2023-03-19T03:52:05;33.60;;;15.20;;
78838;SDS011;68405;47.190;27.558;2023-03-19T03:54:38;38.40;;;17.80;;
78838;SDS011;68405;47.190;27.558;2023-03-19T03:57:09;33.80;;;17.90;;
78838;SDS011;68405;47.190;27.558;2023-03-19T03:59:41;29.10;;;14.70;;
78838;SDS011;68405;47.190;27.558;2023-03-19T04:02:13;27.40;;;13.10;;
78838;SDS011;68405;47.190;27.558;2023-03-19T04:04:45;28.50;;;14.60;;
78838;SDS011;68405;47.190;27.558;2023-03-19T04:07:16;28.70;;;14.40;;
78838;SDS011;68405;47.190;27.558;2023-03-19T04:09:49;25.30;;;14.00;;
78838;SDS011;68405;47.190;27.558;2023-03-19T04:12:21;30.50;;;14.80;;
78838;SDS011;68405;47.190;27.558;2023-03-19T04:14:53;29.10;;;14.30;;
78838;SDS011;68405;47.190;27.558;2023-03-19T04:17:25;28.70;;;15.00;;
78838;SDS011;68405;47.190;27.558;2023-03-19T04:19:57;37.00;;;19.30;;
78838;SDS011;68405;47.190;27.558;2023-03-19T04:22:29;31.80;;;17.40;;
78838;SDS011;68405;47.190;27.558;2023-03-19T04:25:01;24.90;;;13.00;;
78838;SDS011;68405;47.190;27.558;2023-03-19T04:27:35;24.90;;;13.20;;
78838;SDS011;68405;47.190;27.558;2023-03-19T04:30:08;28.60;;;13.90;;
78838;SDS011;68405;47.190;27.558;2023-03-19T04:32:41;26.40;;;13.50;;
78838;SDS011;68405;47.190;27.558;2023-03-19T04:35:13;27.00;;;13.80;;
78838;SDS011;68405;47.190;27.558;2023-03-19T04:37:46;25.00;;;13.60;;
78838;SDS011;68405;47.190;27.558;2023-03-19T04:40:18;38.10;;;16.70;;
78838;SDS011;68405;47.190;27.558;2023-03-19T04:42:50;33.20;;;16.80;;
78838;SDS011;68405;47.190;27.558;2023-03-19T04:45:22;22.80;;;12.30;;
78838;SDS011;68405;47.190;27.558;2023-03-19T04:47:54;28.50;;;14.80;;
78838;SDS011;68405;47.190;27.558;2023-03-19T04:50:26;25.70;;;12.70;;
78838;SDS011;68405;47.190;27.558;2023-03-19T04:52:57;26.50;;;14.60;;
78838;SDS011;68405;47.190;27.558;2023-03-19T04:55:29;26.80;;;14.10;;
78838;SDS011;68405;47.190;27.558;2023-03-19T04:58:01;29.70;;;15.00;;
78838;SDS011;68405;47.190;27.558;2023-03-19T05:00:33;23.40;;;13.00;;
78838;SDS011;68405;47.190;27.558;2023-03-19T05:03:05;35.40;;;16.60;;
78838;SDS011;68405;47.190;27.558;2023-03-19T05:05:37;31.60;;;14.70;;
78838;SDS011;68405;47.190;27.558;2023-03-19T05:08:08;25.20;;;13.70;;
78838;SDS011;68405;47.190;27.558;2023-03-19T05:10:41;26.10;;;13.00;;
78838;SDS011;68405;47.190;27.558;2023-03-19T05:13:12;29.90;;;15.60;;
78838;SDS011;68405;47.190;27.558;2023-03-19T05:15:44;26.20;;;14.80;;
78838;SDS011;68405;47.190;27.558;2023-03-19T05:18:16;27.90;;;14.20;;
78838;SDS011;68405;47.190;27.558;2023-03-19T05:20:48;27.70;;;13.90;;
78838;SDS011;68405;47.190;27.558;2023-03-19T05:23:20;29.70;;;14.50;;
78838;SDS011;68405;47.190;27.558;2023-03-19T05:25:52;31.40;;;15.60;;
78838;SDS011;68405;47.190;27.558;2023-03-19T05:28:27;28.90;;;16.40;;
78838;SDS011;68405;47.190;27.558;2023-03-19T05:30:59;27.20;;;14.10;;
78838;SDS011;68405;47.190;27.558;2023-03-19T05:33:32;26.20;;;13.10;;
78838;SDS011;68405;47.190;27.558;2023-03-19T05:36:04;27.30;;;13.10;;
78838;SDS011;68405;47.190;27.558;2023-03-19T05:38:37;21.90;;;11.70;;
78838;SDS011;68405;47.190;27.558;2023-03-19T05:41:08;25.40;;;13.60;;
78838;SDS011;68405;47.190;27.558;2023-03-19T05:43:40;26.20;;;12.30;;
78838;SDS011;68405;47.190;27.558;2023-03-19T05:46:12;26.10;;;13.70;;
78838;SDS011;68405;47.190;27.558;2023-03-19T05:48:44;28.10;;;14.70;;
78838;SDS011;68405;47.190;27.558;2023-03-19T05:51:15;37.20;;;16.90;;
78838;SDS011;68405;47.190;27.558;2023-03-19T05:53:47;26.20;;;14.10;;
78838;SDS011;68405;47.190;27.558;2023-03-19T05:56:19;26.20;;;12.80;;
78838;SDS011;68405;47.190;27.558;2023-03-19T05:58:52;25.50;;;13.90;;
78838;SDS011;68405;47.190;27.558;2023-03-19T06:01:25;25.50;;;12.90;;
78838;SDS011;68405;47.190;27.558;2023-03-19T06:03:57;20.00;;;11.60;;
78838;SDS011;68405;47.190;27.558;2023-03-19T06:06:29;23.80;;;13.50;;
78838;SDS011;68405;47.190;27.558;2023-03-19T06:09:01;26.40;;;13.30;;
78838;SDS011;68405;47.190;27.558;2023-03-19T06:11:33;23.00;;;13.50;;
78838;SDS011;68405;47.190;27.558;2023-03-19T06:14:06;30.90;;;15.00;;
78838;SDS011;68405;47.190;27.558;2023-03-19T06:16:38;26.50;;;13.20;;
78838;SDS011;68405;47.190;27.558;2023-03-19T06:19:11;27.90;;;13.70;;
78838;SDS011;68405;47.190;27.558;2023-03-19T06:21:43;26.40;;;13.30;;
78838;SDS011;68405;47.190;27.558;2023-03-19T06:24:15;24.40;;;12.30;;
78838;SDS011;68405;47.190;27.558;2023-03-19T06:26:47;27.50;;;14.90;;
78838;SDS011;68405;47.190;27.558;2023-03-19T06:29:18;26.10;;;14.10;;
78838;SDS011;68405;47.190;27.558;2023-03-19T06:31:50;25.60;;;12.70;;
78838;SDS011;68405;47.190;27.558;2023-03-19T06:34:22;28.00;;;14.20;;
78838;SDS011;68405;47.190;27.558;2023-03-19T06:36:54;27.00;;;14.70;;
78838;SDS011;68405;47.190;27.558;2023-03-19T06:39:26;28.30;;;15.10;;
78838;SDS011;68405;47.190;27.558;2023-03-19T06:41:57;26.70;;;14.00;;
78838;SDS011;68405;47.190;27.558;2023-03-19T06:44:29;31.60;;;14.80;;
78838;SDS011;68405;47.190;27.558;2023-03-19T06:47:01;30.30;;;13.10;;
78838;SDS011;68405;47.190;27.558;2023-03-19T06:49:34;29.10;;;15.20;;
78838;SDS011;68405;47.190;27.558;2023-03-19T06:52:06;28.70;;;15.40;;
78838;SDS011;68405;47.190;27.558;2023-03-19T06:54:38;30.40;;;15.40;;
78838;SDS011;68405;47.190;27.558;2023-03-19T06:57:10;26.50;;;14.50;;
78838;SDS011;68405;47.190;27.558;2023-03-19T06:59:42;26.60;;;13.80;;
78838;SDS011;68405;47.190;27.558;2023-03-19T07:02:14;26.90;;;13.50;;
78838;SDS011;68405;47.190;27.558;2023-03-19T07:04:45;31.10;;;16.70;;
78838;SDS011;68405;47.190;27.558;2023-03-19T07:07:17;28.60;;;14.70;;
78838;SDS011;68405;47.190;27.558;2023-03-19T07:09:49;30.10;;;14.70;;
78838;SDS011;68405;47.190;27.558;2023-03-19T07:12:21;29.10;;;15.40;;
78838;SDS011;68405;47.190;27.558;2023-03-19T07:14:55;26.60;;;13.70;;
78838;SDS011;68405;47.190;27.558;2023-03-19T07:17:27;25.70;;;14.60;;
78838;SDS011;68405;47.190;27.558;2023-03-19T07:19:59;25.90;;;13.90;;
78838;SDS011;68405;47.190;27.558;2023-03-19T07:22:31;27.60;;;13.70;;
78838;SDS011;68405;47.190;27.558;2023-03-19T07:25:03;26.00;;;14.20;;
78838;SDS011;68405;47.190;27.558;2023-03-19T07:27:36;26.80;;;13.40;;
78838;SDS011;68405;47.190;27.558;2023-03-19T07:30:10;22.80;;;13.70;;
78838;SDS011;68405;47.190;27.558;2023-03-19T07:32:43;20.80;;;12.70;;
78838;SDS011;68405;47.190;27.558;2023-03-19T07:35:15;20.90;;;12.40;;
78838;SDS011;68405;47.190;27.558;2023-03-19T07:37:47;24.70;;;11.80;;
78838;SDS011;68405;47.190;27.558;2023-03-19T07:40:19;23.00;;;12.50;;
78838;SDS011;68405;47.190;27.558;2023-03-19T07:42:51;22.40;;;11.30;;
78838;SDS011;68405;47.190;27.558;2023-03-19T07:45:23;18.70;;;11.30;;
78838;SDS011;68405;47.190;27.558;2023-03-19T07:47:55;23.10;;;11.40;;
78838;SDS011;68405;47.190;27.558;2023-03-19T07:50:31;18.60;;;11.10;;
78838;SDS011;68405;47.190;27.558;2023-03-19T07:53:03;18.60;;;10.20;;
78838;SDS011;68405;47.190;27.558;2023-03-19T07:55:35;19.80;;;10.60;;
78838;SDS011;68405;47.190;27.558;2023-03-19T07:58:07;20.40;;;11.00;;
78838;SDS011;68405;47.190;27.558;2023-03-19T08:00:39;19.00;;;11.40;;
78838;SDS011;68405;47.190;27.558;2023-03-19T08:03:12;18.50;;;9.60;;
78838;SDS011;68405;47.190;27.558;2023-03-19T08:05:46;17.20;;;9.40;;
78838;SDS011;68405;47.190;27.558;2023-03-19T08:08:18;14.00;;;8.50;;
78838;SDS011;68405;47.190;27.558;2023-03-19T08:10:51;14.80;;;8.40;;
78838;SDS011;68405;47.190;27.558;2023-03-19T08:13:24;17.00;;;9.20;;
78838;SDS011;68405;47.190;27.558;2023-03-19T08:15:56;13.60;;;7.80;;
78838;SDS011;68405;47.190;27.558;2023-03-19T08:18:28;15.80;;;9.90;;
78838;SDS011;68405;47.190;27.558;2023-03-19T08:21:01;14.20;;;7.90;;
78838;SDS011;68405;47.190;27.558;2023-03-19T08:23:34;14.40;;;9.20;;
78838;SDS011;68405;47.190;27.558;2023-03-19T08:26:06;16.90;;;9.10;;
78838;SDS011;68405;47.190;27.558;2023-03-19T08:28:38;14.60;;;8.40;;
78838;SDS011;68405;47.190;27.558;2023-03-19T08:31:10;20.60;;;10.60;;
78838;SDS011;68405;47.190;27.558;2023-03-19T08:33:43;17.20;;;10.40;;
78838;SDS011;68405;47.190;27.558;2023-03-19T08:36:15;15.10;;;9.20;;
78838;SDS011;68405;47.190;27.558;2023-03-19T08:38:47;19.40;;;11.00;;
78838;SDS011;68405;47.190;27.558;2023-03-19T08:41:22;19.20;;;11.30;;
78838;SDS011;68405;47.190;27.558;2023-03-19T08:43:54;20.80;;;11.20;;
78838;SDS011;68405;47.190;27.558;2023-03-19T08:46:26;19.70;;;10.30;;
78838;SDS011;68405;47.190;27.558;2023-03-19T08:48:58;20.20;;;10.80;;
78838;SDS011;68405;47.190;27.558;2023-03-19T08:51:30;19.10;;;11.60;;
78838;SDS011;68405;47.190;27.558;2023-03-19T08:54:02;18.80;;;10.60;;
78838;SDS011;68405;47.190;27.558;2023-03-19T08:56:34;20.60;;;11.20;;
78838;SDS011;68405;47.190;27.558;2023-03-19T08:59:06;19.60;;;10.80;;
78838;SDS011;68405;47.190;27.558;2023-03-19T09:01:38;21.00;;;10.80;;
78838;SDS011;68405;47.190;27.558;2023-03-19T09:04:11;18.60;;;11.50;;
78838;SDS011;68405;47.190;27.558;2023-03-19T09:06:43;20.30;;;11.80;;
78838;SDS011;68405;47.190;27.558;2023-03-19T09:09:20;19.80;;;11.80;;
78838;SDS011;68405;47.190;27.558;2023-03-19T09:11:53;21.70;;;12.60;;
78838;SDS011;68405;47.190;27.558;2023-03-19T09:14:25;17.80;;;11.00;;
78838;SDS011;68405;47.190;27.558;2023-03-19T09:16:57;22.50;;;10.60;;
78838;SDS011;68405;47.190;27.558;2023-03-19T09:19:28;20.50;;;11.00;;
78838;SDS011;68405;47.190;27.558;2023-03-19T09:22:00;20.10;;;11.50;;
78838;SDS011;68405;47.190;27.558;2023-03-19T09:24:33;18.20;;;10.70;;
78838;SDS011;68405;47.190;27.558;2023-03-19T09:27:05;18.90;;;11.00;;
78838;SDS011;68405;47.190;27.558;2023-03-19T09:29:37;17.40;;;9.90;;
78838;SDS011;68405;47.190;27.558;2023-03-19T09:32:09;19.40;;;11.10;;
78838;SDS011;68405;47.190;27.558;2023-03-19T09:34:41;18.50;;;10.30;;
78838;SDS011;68405;47.190;27.558;2023-03-19T09:37:13;18.60;;;10.30;;
78838;SDS011;68405;47.190;27.558;2023-03-19T09:39:45;17.10;;;10.50;;
78838;SDS011;68405;47.190;27.558;2023-03-19T09:42:21;15.00;;;9.00;;
78838;SDS011;68405;47.190;27.558;2023-03-19T09:45:12;18.70;;;9.60;;
78838;SDS011;68405;47.190;27.558;2023-03-19T09:47:46;17.20;;;9.90;;
78838;SDS011;68405;47.190;27.558;2023-03-19T09:50:23;15.70;;;8.00;;
78838;SDS011;68405;47.190;27.558;2023-03-19T09:52:57;18.20;;;10.00;;
78838;SDS011;68405;47.190;27.558;2023-03-19T09:55:42;13.60;;;8.50;;
78838;SDS011;68405;47.190;27.558;2023-03-19T09:58:17;15.70;;;9.50;;
78838;SDS011;68405;47.190;27.558;2023-03-19T10:00:50;14.00;;;9.20;;
78838;SDS011;68405;47.190;27.558;2023-03-19T10:03:32;15.90;;;9.60;;
78838;SDS011;68405;47.190;27.558;2023-03-19T10:06:20;18.20;;;9.50;;
78838;SDS011;68405;47.190;27.558;2023-03-19T10:09:14;15.00;;;9.60;;
78838;SDS011;68405;47.190;27.558;2023-03-19T10:12:07;19.00;;;9.10;;
78838;SDS011;68405;47.190;27.558;2023-03-19T10:15:08;16.20;;;10.20;;
78838;SDS011;68405;47.190;27.558;2023-03-19T10:17:52;16.60;;;9.90;;
78838;SDS011;68405;47.190;27.558;2023-03-19T10:20:35;15.60;;;9.30;;
78838;SDS011;68405;47.190;27.558;2023-03-19T10:23:22;16.60;;;9.60;;
78838;SDS011;68405;47.190;27.558;2023-03-19T10:26:01;17.50;;;10.20;;
78838;SDS011;68405;47.190;27.558;2023-03-19T10:28:35;14.90;;;9.80;;
78838;SDS011;68405;47.190;27.558;2023-03-19T10:31:20;18.90;;;10.00;;
78838;SDS011;68405;47.190;27.558;2023-03-19T10:34:00;15.70;;;9.40;;
78838;SDS011;68405;47.190;27.558;2023-03-19T10:36:43;17.50;;;8.90;;
78838;SDS011;68405;47.190;27.558;2023-03-19T10:39:15;14.90;;;9.20;;
78838;SDS011;68405;47.190;27.558;2023-03-19T10:41:51;16.80;;;10.00;;
78838;SDS011;68405;47.190;27.558;2023-03-19T10:44:30;15.20;;;9.90;;
78838;SDS011;68405;47.190;27.558;2023-03-19T10:47:11;16.20;;;11.00;;
78838;SDS011;68405;47.190;27.558;2023-03-19T10:49:45;16.70;;;9.80;;
78838;SDS011;68405;47.190;27.558;2023-03-19T10:52:20;16.00;;;10.30;;
78838;SDS011;68405;47.190;27.558;2023-03-19T10:54:55;16.60;;;9.90;;
78838;SDS011;68405;47.190;27.558;2023-03-19T10:57:32;18.80;;;11.10;;
78838;SDS011;68405;47.190;27.558;2023-03-19T11:00:03;16.20;;;10.70;;
78838;SDS011;68405;47.190;27.558;2023-03-19T11:02:52;15.60;;;10.10;;
78838;SDS011;68405;47.190;27.558;2023-03-19T11:05:26;17.70;;;10.80;;
78838;SDS011;68405;47.190;27.558;2023-03-19T11:07:59;18.70;;;11.30;;
78838;SDS011;68405;47.190;27.558;2023-03-19T11:10:32;15.90;;;11.30;;
78838;SDS011;68405;47.190;27.558;2023-03-19T11:13:11;16.80;;;11.40;;
78838;SDS011;68405;47.190;27.558;2023-03-19T11:15:51;16.80;;;11.50;;
78838;SDS011;68405;47.190;27.558;2023-03-19T11:20:57;16.40;;;10.60;;
78838;SDS011;68405;47.190;27.558;2023-03-19T11:23:37;16.30;;;11.50;;
78838;SDS011;68405;47.190;27.558;2023-03-19T11:26:12;16.40;;;10.80;;
78838;SDS011;68405;47.190;27.558;2023-03-19T11:28:51;16.60;;;10.80;;
78838;SDS011;68405;47.190;27.558;2023-03-19T11:31:32;15.40;;;11.20;;
78838;SDS011;68405;47.190;27.558;2023-03-19T11:34:16;16.30;;;10.90;;
78838;SDS011;68405;47.190;27.558;2023-03-19T11:37:00;16.00;;;10.10;;
78838;SDS011;68405;47.190;27.558;2023-03-19T11:39:42;16.00;;;11.20;;
78838;SDS011;68405;47.190;27.558;2023-03-19T11:42:27;16.30;;;10.90;;
78838;SDS011;68405;47.190;27.558;2023-03-19T11:45:22;15.30;;;10.60;;
78838;SDS011;68405;47.190;27.558;2023-03-19T11:48:05;15.20;;;10.80;;
78838;SDS011;68405;47.190;27.558;2023-03-19T11:50:51;19.80;;;11.00;;
78838;SDS011;68405;47.190;27.558;2023-03-19T11:53:28;18.60;;;11.80;;
78838;SDS011;68405;47.190;27.558;2023-03-19T11:56:07;17.00;;;11.60;;
78838;SDS011;68405;47.190;27.558;2023-03-19T11:59:01;17.20;;;12.10;;
78838;SDS011;68405;47.190;27.558;2023-03-19T12:01:58;16.00;;;10.70;;
78838;SDS011;68405;47.190;27.558;2023-03-19T12:04:51;14.60;;;10.60;;
78838;SDS011;68405;47.190;27.558;2023-03-19T12:07:49;17.20;;;10.60;;
78838;SDS011;68405;47.190;27.558;2023-03-19T12:10:39;14.90;;;9.90;;
78838;SDS011;68405;47.190;27.558;2023-03-19T12:13:25;14.60;;;10.00;;
78838;SDS011;68405;47.190;27.558;2023-03-19T12:16:12;14.60;;;10.10;;
78838;SDS011;68405;47.190;27.558;2023-03-19T12:19:05;15.80;;;10.90;;
78838;SDS011;68405;47.190;27.558;2023-03-19T12:21:49;14.50;;;10.70;;
78838;SDS011;68405;47.190;27.558;2023-03-19T12:24:34;14.60;;;10.50;;
78838;SDS011;68405;47.190;27.558;2023-03-19T12:27:26;15.00;;;9.60;;
78838;SDS011;68405;47.190;27.558;2023-03-19T12:30:11;17.50;;;10.60;;
78838;SDS011;68405;47.190;27.558;2023-03-19T12:32:53;16.30;;;10.60;;
78838;SDS011;68405;47.190;27.558;2023-03-19T12:35:46;14.10;;;10.00;;
78838;SDS011;68405;47.190;27.558;2023-03-19T12:38:23;12.70;;;9.30;;
78838;SDS011;68405;47.190;27.558;2023-03-19T12:41:02;14.10;;;9.30;;
78838;SDS011;68405;47.190;27.558;2023-03-19T12:43:39;16.10;;;11.10;;
78838;SDS011;68405;47.190;27.558;2023-03-19T12:46:19;13.40;;;9.60;;
78838;SDS011;68405;47.190;27.558;2023-03-19T12:48:57;15.90;;;9.40;;
78838;SDS011;68405;47.190;27.558;2023-03-19T12:51:36;11.60;;;8.40;;
78838;SDS011;68405;47.190;27.558;2023-03-19T12:54:13;13.90;;;8.70;;
78838;SDS011;68405;47.190;27.558;2023-03-19T12:56:51;11.00;;;8.00;;
78838;SDS011;68405;47.190;27.558;2023-03-19T12:59:29;13.00;;;8.50;;
78838;SDS011;68405;47.190;27.558;2023-03-19T13:02:10;12.50;;;8.50;;
78838;SDS011;68405;47.190;27.558;2023-03-19T13:04:48;13.90;;;8.20;;
78838;SDS011;68405;47.190;27.558;2023-03-19T13:07:26;13.10;;;8.80;;
78838;SDS011;68405;47.190;27.558;2023-03-19T13:10:02;15.30;;;8.80;;
78838;SDS011;68405;47.190;27.558;2023-03-19T13:12:38;11.80;;;8.20;;
78838;SDS011;68405;47.190;27.558;2023-03-19T13:15:11;11.80;;;7.90;;
78838;SDS011;68405;47.190;27.558;2023-03-19T13:17:55;12.10;;;8.20;;
78838;SDS011;68405;47.190;27.558;2023-03-19T13:20:38;11.40;;;8.20;;
78838;SDS011;68405;47.190;27.558;2023-03-19T13:23:27;13.40;;;8.10;;
78838;SDS011;68405;47.190;27.558;2023-03-19T13:26:02;13.70;;;8.40;;
78838;SDS011;68405;47.190;27.558;2023-03-19T13:28:52;11.80;;;7.40;;
78838;SDS011;68405;47.190;27.558;2023-03-19T13:31:32;12.80;;;8.30;;
78838;SDS011;68405;47.190;27.558;2023-03-19T13:34:05;17.40;;;9.70;;
78838;SDS011;68405;47.190;27.558;2023-03-19T13:36:50;14.10;;;8.50;;
78838;SDS011;68405;47.190;27.558;2023-03-19T13:39:29;15.10;;;9.20;;
78838;SDS011;68405;47.190;27.558;2023-03-19T13:42:10;14.00;;;9.20;;
78838;SDS011;68405;47.190;27.558;2023-03-19T13:45:04;17.40;;;9.40;;
78838;SDS011;68405;47.190;27.558;2023-03-19T13:51:03;13.30;;;7.80;;
78838;SDS011;68405;47.190;27.558;2023-03-19T13:53:53;12.60;;;8.20;;
78838;SDS011;68405;47.190;27.558;2023-03-19T13:59:34;14.90;;;8.60;;
78838;SDS011;68405;47.190;27.558;2023-03-19T14:05:14;13.90;;;8.20;;
78838;SDS011;68405;47.190;27.558;2023-03-19T14:10:24;16.00;;;9.00;;
78838;SDS011;68405;47.190;27.558;2023-03-19T14:13:05;15.10;;;8.20;;
78838;SDS011;68405;47.190;27.558;2023-03-19T14:15:48;11.10;;;7.50;;
78838;SDS011;68405;47.190;27.558;2023-03-19T14:20:58;11.50;;;7.50;;
78838;SDS011;68405;47.190;27.558;2023-03-19T14:23:33;14.20;;;8.80;;
78838;SDS011;68405;47.190;27.558;2023-03-19T14:26:12;16.60;;;9.30;;
78838;SDS011;68405;47.190;27.558;2023-03-19T14:31:36;14.90;;;9.10;;
78838;SDS011;68405;47.190;27.558;2023-03-19T14:34:19;15.10;;;8.20;;
78838;SDS011;68405;47.190;27.558;2023-03-19T14:39:28;14.20;;;9.60;;
78838;SDS011;68405;47.190;27.558;2023-03-19T14:42:03;15.80;;;8.80;;
78838;SDS011;68405;47.190;27.558;2023-03-19T14:44:47;15.20;;;9.70;;
78838;SDS011;68405;47.190;27.558;2023-03-19T14:47:59;12.40;;;8.40;;
78838;SDS011;68405;47.190;27.558;2023-03-19T14:50:52;14.80;;;7.90;;
78838;SDS011;68405;47.190;27.558;2023-03-19T14:53:41;14.00;;;8.20;;
78838;SDS011;68405;47.190;27.558;2023-03-19T14:56:19;15.30;;;9.70;;
78838;SDS011;68405;47.190;27.558;2023-03-19T14:58:54;16.60;;;8.90;;
78838;SDS011;68405;47.190;27.558;2023-03-19T15:01:31;13.70;;;8.30;;
78838;SDS011;68405;47.190;27.558;2023-03-19T15:04:10;13.90;;;9.00;;
78838;SDS011;68405;47.190;27.558;2023-03-19T15:06:45;15.20;;;8.20;;
78838;SDS011;68405;47.190;27.558;2023-03-19T15:09:25;13.60;;;8.10;;
78838;SDS011;68405;47.190;27.558;2023-03-19T15:15:14;12.90;;;8.10;;
78838;SDS011;68405;47.190;27.558;2023-03-19T15:17:55;14.30;;;8.30;;
78838;SDS011;68405;47.190;27.558;2023-03-19T15:20:34;13.80;;;8.90;;
78838;SDS011;68405;47.190;27.558;2023-03-19T15:23:09;12.30;;;7.80;;
78838;SDS011;68405;47.190;27.558;2023-03-19T15:25:46;13.80;;;7.30;;
78838;SDS011;68405;47.190;27.558;2023-03-19T15:28:25;14.30;;;8.00;;